Time,TemperatureF,DewpointF,PressureIn,WindDirection,WindDirectionDegrees,WindSpeedMPH,WindSpeedGustMPH,Humidity,HourlyPrecipIn,Conditions,Clouds,dailyrainin,SoftwareType,DateUTC
2013-07-26 00:02:00,62.3,59.9,30.02,NNW,342,0.0,0.0,92,0.00,CLR,,0.00,WeatherDisplay:10.37,2013-07-26 05:02:00,
2013-07-26 00:07:00,62.2,59.8,30.02,NNW,342,0.0,0.0,92,0.00,CLR,,0.00,WeatherDisplay:10.37,2013-07-26 05:07:00,
2013-07-26 00:12:00,62.2,59.8,30.02,NNW,342,0.0,0.0,92,0.00,CLR,,0.00,WeatherDisplay:10.37,2013-07-26 05:12:00,
2013-07-26 00:17:00,62.3,60.2,30.02,NNW,342,0.0,0.0,93,0.00,CLR,,0.00,WeatherDisplay:10.37,2013-07-26 05:17:00,
2013-07-26 00:22:00,62.3,60.2,30.02,NNW,342,0.0,0.0,93,0.00,CLR,,0.00,WeatherDisplay:10.37,2013-07-26 05:22:00,
2013-07-26 00:27:00,62.2,59.8,30.02,NNW,342,0.0,0.0,92,0.00,CLR,,0.00,WeatherDisplay:10.37,2013-07-26 05:27:00,
2013-07-26 00:32:00,62.0,59.6,30.02,NNW,342,0.0,0.0,92,0.00,CLR,,0.00,WeatherDisplay:10.37,2013-07-26 05:32:00,
2013-07-26 00:37:00,61.9,59.5,30.02,NNW,342,0.0,0.0,92,0.00,CLR,,0.00,WeatherDisplay:10.37,2013-07-26 05:37:00,
2013-07-26 00:42:00,61.7,59.4,30.02,NNW,342,0.0,0.0,92,0.00,CLR,,0.00,WeatherDisplay:10.37,2013-07-26 05:42:00,
2013-07-26 00:47:00,61.5,59.2,30.02,NNW,342,0.0,0.0,92,0.00,CLR,,0.00,WeatherDisplay:10.37,2013-07-26 05:47:00,
2013-07-26 00:52:00,61.5,59.5,30.02,NNW,342,0.0,0.0,93,0.00,CLR,,0.00,WeatherDisplay:10.37,2013-07-26 05:52:00,
2013-07-26 00:57:00,61.6,59.6,30.02,NNW,342,0.0,0.0,93,0.00,CLR,,0.00,WeatherDisplay:10.37,2013-07-26 05:57:00,
2013-07-26 01:02:00,61.4,59.1,30.02,NNW,342,0.0,0.0,92,0.00,CLR,,0.00,WeatherDisplay:10.37,2013-07-26 06:02:00,
2013-07-26 01:07:00,61.3,59.3,30.02,NNW,342,0.0,0.0,93,0.00,CLR,,0.00,WeatherDisplay:10.37,2013-07-26 06:07:00,
2013-07-26 01:12:00,61.4,59.4,30.02,NNW,342,0.0,0.0,93,0.00,CLR,,0.00,WeatherDisplay:10.37,2013-07-26 06:12:00,
2013-07-26 01:17:00,61.4,59.4,30.02,NNW,342,0.0,0.0,93,0.00,CLR,,0.00,WeatherDisplay:10.37,2013-07-26 06:17:00,
2013-07-26 01:22:00,61.1,58.8,30.02,NNW,342,0.0,0.0,92,0.00,CLR,,0.00,WeatherDisplay:10.37,2013-07-26 06:22:00,
2013-07-26 01:27:00,60.9,58.6,30.02,NNW,342,0.0,0.0,92,0.00,CLR,,0.00,WeatherDisplay:10.37,2013-07-26 06:27:00,
2013-07-26 01:32:00,60.9,58.9,30.02,NNW,342,0.0,0.0,93,0.00,CLR,,0.00,WeatherDisplay:10.37,2013-07-26 06:32:00,
2013-07-26 01:37:00,60.9,58.9,30.01,NNW,342,0.0,0.0,93,0.00,CLR,,0.00,WeatherDisplay:10.37,2013-07-26 06:37:00,
2013-07-26 01:42:00,60.7,58.7,30.01,NNW,342,0.0,0.0,93,0.00,CLR,,0.00,WeatherDisplay:10.37,2013-07-26 06:42:00,
2013-07-26 01:47:00,60.7,58.7,30.01,NNW,342,0.0,0.0,93,0.00,CLR,,0.00,WeatherDisplay:10.37,2013-07-26 06:47:00,
2013-07-26 01:52:00,60.6,58.6,30.01,NNW,342,0.0,0.0,93,0.00,CLR,,0.00,WeatherDisplay:10.37,2013-07-26 06:52:00,
2013-07-26 01:57:00,60.5,58.5,30.01,NNW,342,0.0,0.0,93,0.00,CLR,,0.00,WeatherDisplay:10.37,2013-07-26 06:57:00,
2013-07-26 02:02:00,60.5,58.5,30.01,NNW,342,0.0,0.0,93,0.00,CLR,,0.00,WeatherDisplay:10.37,2013-07-26 07:02:00,
2013-07-26 02:07:00,60.5,58.8,30.01,NNW,342,0.0,0.0,94,0.00,CLR,,0.00,WeatherDisplay:10.37,2013-07-26 07:07:00,
2013-07-26 02:12:00,60.5,58.5,30.01,NNW,342,0.0,0.0,93,0.00,CLR,,0.00,WeatherDisplay:10.37,2013-07-26 07:12:00,
2013-07-26 02:17:00,60.3,58.3,30.01,NNW,342,0.0,0.0,93,0.00,CLR,,0.00,WeatherDisplay:10.37,2013-07-26 07:17:00,
2013-07-26 02:22:00,60.3,58.6,30.01,NNW,342,0.0,0.0,94,0.00,CLR,,0.00,WeatherDisplay:10.37,2013-07-26 07:22:00,
2013-07-26 02:27:00,60.4,58.4,30.00,NNW,342,0.0,0.0,93,0.00,CLR,,0.00,WeatherDisplay:10.37,2013-07-26 07:27:00,
2013-07-26 02:32:00,60.3,58.6,30.00,NNW,342,0.0,0.0,94,0.00,CLR,,0.00,WeatherDisplay:10.37,2013-07-26 07:32:00,
2013-07-26 02:37:00,60.2,58.5,30.00,NNW,342,0.0,0.0,94,0.00,CLR,,0.00,WeatherDisplay:10.37,2013-07-26 07:37:00,
2013-07-26 02:42:00,60.3,58.6,29.99,NNW,342,0.0,0.0,94,0.00,CLR,,0.00,WeatherDisplay:10.37,2013-07-26 07:42:00,
2013-07-26 02:47:00,60.6,58.9,29.98,NNW,342,0.0,0.0,94,0.00,CLR,,0.00,WeatherDisplay:10.37,2013-07-26 07:47:00,
2013-07-26 02:52:00,60.3,58.3,29.98,NNW,342,0.0,0.0,93,0.00,CLR,,0.00,WeatherDisplay:10.37,2013-07-26 07:52:00,
2013-07-26 02:57:00,60.0,58.0,29.98,NNW,342,0.0,0.0,93,0.00,CLR,,0.00,WeatherDisplay:10.37,2013-07-26 07:57:00,
2013-07-26 03:02:00,59.9,58.2,29.98,NNW,342,0.0,0.0,94,0.00,CLR,,0.00,WeatherDisplay:10.37,2013-07-26 08:02:00,
2013-07-26 03:07:00,59.9,58.2,29.99,NNW,342,0.0,0.0,94,0.00,CLR,,0.00,WeatherDisplay:10.37,2013-07-26 08:07:00,
2013-07-26 03:12:00,59.9,58.2,29.99,NNW,342,0.0,0.0,94,0.00,CLR,,0.00,WeatherDisplay:10.37,2013-07-26 08:12:00,
2013-07-26 03:17:00,59.9,58.2,30.00,NNW,342,0.0,0.0,94,0.00,CLR,,0.00,WeatherDisplay:10.37,2013-07-26 08:17:00,
2013-07-26 03:22:00,59.9,58.2,30.00,NNW,342,0.0,0.0,94,0.00,CLR,,0.00,WeatherDisplay:10.37,2013-07-26 08:22:00,
2013-07-26 03:27:00,60.0,58.6,30.00,NNW,342,0.0,0.0,95,0.00,CLR,,0.00,WeatherDisplay:10.37,2013-07-26 08:27:00,
2013-07-26 03:32:00,60.0,58.3,30.00,NNW,342,0.0,0.0,94,0.00,CLR,,0.00,WeatherDisplay:10.37,2013-07-26 08:32:00,
2013-07-26 03:37:00,59.9,58.2,30.00,NNW,342,0.0,0.0,94,0.00,CLR,,0.00,WeatherDisplay:10.37,2013-07-26 08:37:00,
2013-07-26 03:42:00,59.9,58.2,30.00,NNW,342,0.0,0.0,94,0.00,CLR,,0.00,WeatherDisplay:10.37,2013-07-26 08:42:00,
2013-07-26 03:48:00,59.9,58.2,30.00,NNW,342,0.0,0.0,94,0.00,CLR,,0.00,WeatherDisplay:10.37,2013-07-26 08:48:00,
2013-07-26 03:53:00,59.9,58.2,30.00,NNW,342,0.0,0.0,94,0.00,CLR,,0.00,WeatherDisplay:10.37,2013-07-26 08:53:00,
2013-07-26 03:58:00,59.8,58.1,30.00,NNW,342,0.0,0.0,94,0.00,CLR,,0.00,WeatherDisplay:10.37,2013-07-26 08:58:00,
2013-07-26 04:03:00,59.5,57.8,30.00,NNW,342,0.0,0.0,94,0.00,CLR,,0.00,WeatherDisplay:10.37,2013-07-26 09:03:00,
2013-07-26 04:08:00,59.4,57.7,30.00,NNW,342,0.0,0.0,94,0.00,CLR,,0.00,WeatherDisplay:10.37,2013-07-26 09:08:00,
2013-07-26 04:13:00,59.6,58.2,30.00,NNW,342,0.0,0.0,95,0.00,CLR,,0.00,WeatherDisplay:10.37,2013-07-26 09:13:00,
2013-07-26 04:18:00,59.4,57.7,30.00,NNW,342,0.0,0.0,94,0.00,CLR,,0.00,WeatherDisplay:10.37,2013-07-26 09:18:00,
2013-07-26 04:23:00,59.3,57.6,30.00,NNW,342,0.0,0.0,94,0.00,CLR,,0.00,WeatherDisplay:10.37,2013-07-26 09:23:00,
2013-07-26 04:28:00,59.3,57.6,30.00,NNW,342,0.0,0.0,94,0.00,CLR,,0.00,WeatherDisplay:10.37,2013-07-26 09:28:00,
2013-07-26 04:33:00,59.2,57.5,29.99,NNW,342,0.0,0.0,94,0.00,CLR,,0.00,WeatherDisplay:10.37,2013-07-26 09:33:00,
2013-07-26 04:38:00,59.2,57.5,30.00,NNW,342,0.0,0.0,94,0.00,CLR,,0.00,WeatherDisplay:10.37,2013-07-26 09:38:00,
2013-07-26 04:43:00,59.1,57.4,30.00,NNW,342,0.0,0.0,94,0.00,CLR,,0.00,WeatherDisplay:10.37,2013-07-26 09:43:00,
2013-07-26 04:48:00,59.0,57.3,30.00,NNW,342,0.0,0.0,94,0.00,CLR,,0.00,WeatherDisplay:10.37,2013-07-26 09:48:00,
2013-07-26 04:53:00,59.1,57.7,30.00,NNW,342,0.0,0.0,95,0.00,CLR,,0.00,WeatherDisplay:10.37,2013-07-26 09:53:00,
2013-07-26 04:58:00,59.1,57.4,30.00,NNW,342,0.0,0.0,94,0.00,CLR,,0.00,WeatherDisplay:10.37,2013-07-26 09:58:00,
2013-07-26 05:03:00,59.1,57.7,30.00,NNW,342,0.0,0.0,95,0.00,CLR,,0.00,WeatherDisplay:10.37,2013-07-26 10:03:00,
2013-07-26 05:08:00,59.0,57.3,30.00,NNW,342,0.0,0.0,94,0.00,CLR,,0.00,WeatherDisplay:10.37,2013-07-26 10:08:00,
2013-07-26 05:13:00,58.8,57.1,30.00,NNW,342,0.0,0.0,94,0.00,CLR,,0.00,WeatherDisplay:10.37,2013-07-26 10:13:00,
2013-07-26 05:18:00,58.9,57.5,30.00,NNW,342,0.0,0.0,95,0.00,CLR,,0.00,WeatherDisplay:10.37,2013-07-26 10:18:00,
2013-07-26 05:23:00,58.9,57.5,29.99,NNW,342,0.0,0.0,95,0.00,CLR,,0.00,WeatherDisplay:10.37,2013-07-26 10:23:00,
2013-07-26 05:28:00,58.8,57.1,29.99,NNW,342,0.0,0.0,94,0.00,CLR,,0.00,WeatherDisplay:10.37,2013-07-26 10:28:00,
2013-07-26 05:33:00,58.6,56.9,29.99,NNW,342,0.0,0.0,94,0.00,CLR,,0.00,WeatherDisplay:10.37,2013-07-26 10:33:00,
2013-07-26 05:38:00,58.4,56.7,30.00,NNW,342,0.0,0.0,94,0.00,CLR,,0.00,WeatherDisplay:10.37,2013-07-26 10:38:00,
2013-07-26 05:43:00,58.4,56.7,30.00,NNW,342,0.0,0.0,94,0.00,CLR,,0.00,WeatherDisplay:10.37,2013-07-26 10:43:00,
2013-07-26 05:48:00,58.4,56.7,30.00,NNW,342,0.0,0.0,94,0.00,CLR,,0.00,WeatherDisplay:10.37,2013-07-26 10:48:00,
2013-07-26 05:53:00,58.4,57.0,30.00,NNW,342,0.0,0.0,95,0.00,CLR,,0.00,WeatherDisplay:10.37,2013-07-26 10:53:00,
2013-07-26 05:58:00,58.4,57.0,30.01,NNW,342,0.0,0.0,95,0.00,CLR,,0.00,WeatherDisplay:10.37,2013-07-26 10:58:00,
2013-07-26 06:03:00,58.3,56.9,30.01,NNW,342,0.0,0.0,95,0.00,CLR,,0.00,WeatherDisplay:10.37,2013-07-26 11:03:00,
2013-07-26 06:08:00,58.5,57.1,30.01,NNW,342,0.0,0.0,95,0.00,CLR,,0.00,WeatherDisplay:10.37,2013-07-26 11:08:00,
2013-07-26 06:13:00,58.7,57.3,30.01,NNW,342,0.0,0.0,95,0.00,CLR,,0.00,WeatherDisplay:10.37,2013-07-26 11:13:00,
2013-07-26 06:18:00,58.6,56.9,30.01,NNW,342,0.0,0.0,94,0.00,CLR,,0.00,WeatherDisplay:10.37,2013-07-26 11:18:00,
2013-07-26 06:23:00,58.9,57.5,30.00,NNW,342,0.0,0.0,95,0.00,CLR,,0.00,WeatherDisplay:10.37,2013-07-26 11:23:00,
2013-07-26 06:28:00,59.1,57.7,30.00,NNW,342,0.0,0.0,95,0.00,CLR,,0.00,WeatherDisplay:10.37,2013-07-26 11:28:00,
2013-07-26 06:33:00,59.1,57.7,30.00,NNW,342,0.0,0.0,95,0.00,CLR,,0.00,WeatherDisplay:10.37,2013-07-26 11:33:00,
2013-07-26 06:38:00,59.1,57.7,30.00,NNW,342,0.0,0.0,95,0.00,CLR,,0.00,WeatherDisplay:10.37,2013-07-26 11:38:00,
2013-07-26 06:43:00,59.2,57.8,30.01,NNW,342,0.0,0.0,95,0.00,CLR,,0.00,WeatherDisplay:10.37,2013-07-26 11:43:00,
2013-07-26 06:48:00,59.3,57.9,30.01,NNW,342,0.0,0.0,95,0.00,CLR,,0.00,WeatherDisplay:10.37,2013-07-26 11:48:00,
2013-07-26 06:53:00,59.5,58.4,30.01,NNW,342,0.0,0.0,96,0.00,CLR,,0.00,WeatherDisplay:10.37,2013-07-26 11:53:00,
2013-07-26 06:58:00,59.7,58.6,30.01,NNW,342,0.0,0.0,96,0.00,CLR,,0.00,WeatherDisplay:10.37,2013-07-26 11:58:00,
2013-07-26 07:03:00,60.1,59.0,30.00,NNW,342,0.0,0.0,96,0.00,CLR,,0.00,WeatherDisplay:10.37,2013-07-26 12:03:00,
2013-07-26 07:08:00,60.5,59.4,30.00,NNW,342,0.0,0.0,96,0.00,CLR,,0.00,WeatherDisplay:10.37,2013-07-26 12:08:00,
2013-07-26 07:13:00,60.9,60.0,30.01,NNW,342,0.0,0.0,97,0.00,CLR,,0.00,WeatherDisplay:10.37,2013-07-26 12:13:00,
2013-07-26 07:18:00,61.3,60.4,30.01,NNW,342,0.0,0.0,97,0.00,CLR,,0.00,WeatherDisplay:10.37,2013-07-26 12:18:00,
2013-07-26 07:23:00,61.7,60.5,30.01,NNW,342,0.0,0.0,96,0.00,CLR,,0.00,WeatherDisplay:10.37,2013-07-26 12:23:00,
2013-07-26 07:28:00,61.9,60.7,30.01,NNW,342,0.0,0.0,96,0.00,CLR,,0.00,WeatherDisplay:10.37,2013-07-26 12:28:00,
2013-07-26 07:33:00,62.1,60.9,30.01,NNW,342,0.0,0.0,96,0.00,CLR,,0.00,WeatherDisplay:10.37,2013-07-26 12:33:00,
2013-07-26 07:38:00,62.4,61.5,30.01,NNW,342,0.0,0.0,97,0.00,CLR,,0.00,WeatherDisplay:10.37,2013-07-26 12:38:00,
2013-07-26 07:43:00,62.7,61.8,30.01,NNE,14,0.0,0.0,97,0.00,CLR,,0.00,WeatherDisplay:10.37,2013-07-26 12:43:00,
2013-07-26 07:48:00,63.4,62.5,30.01,NNE,24,0.0,0.0,97,0.00,CLR,,0.00,WeatherDisplay:10.37,2013-07-26 12:48:00,
2013-07-26 07:53:00,63.9,63.0,30.01,NNE,24,0.0,0.0,97,0.00,CLR,,0.00,WeatherDisplay:10.37,2013-07-26 12:53:00,
2013-07-26 07:58:00,64.4,63.5,30.01,NNE,24,0.0,0.0,97,0.00,CLR,,0.00,WeatherDisplay:10.37,2013-07-26 12:58:00,
2013-07-26 08:03:00,64.7,63.8,30.01,NNE,24,0.0,0.0,97,0.00,CLR,,0.00,WeatherDisplay:10.37,2013-07-26 13:03:00,
2013-07-26 08:08:00,65.1,64.2,30.01,NNE,24,0.0,0.0,97,0.00,CLR,,0.00,WeatherDisplay:10.37,2013-07-26 13:08:00,
2013-07-26 08:13:00,65.2,64.0,30.01,NE,35,0.0,0.0,96,0.00,CLR,,0.00,WeatherDisplay:10.37,2013-07-26 13:13:00,
2013-07-26 08:18:00,65.6,64.4,30.01,NE,35,0.0,0.0,96,0.00,CLR,,0.00,WeatherDisplay:10.37,2013-07-26 13:18:00,
2013-07-26 08:23:00,65.9,64.7,30.01,NE,35,0.0,0.0,96,0.00,CLR,,0.00,WeatherDisplay:10.37,2013-07-26 13:23:00,
2013-07-26 08:28:00,66.3,64.8,30.01,NE,35,0.0,0.0,95,0.00,CLR,,0.00,WeatherDisplay:10.37,2013-07-26 13:28:00,
2013-07-26 08:33:00,66.7,64.9,30.02,NE,35,0.0,0.0,94,0.00,CLR,,0.00,WeatherDisplay:10.37,2013-07-26 13:33:00,
2013-07-26 08:38:00,67.1,65.0,30.01,NE,35,0.0,0.0,93,0.00,CLR,,0.00,WeatherDisplay:10.37,2013-07-26 13:38:00,
2013-07-26 08:43:00,67.4,64.7,30.01,NE,35,0.0,0.0,91,0.00,CLR,,0.00,WeatherDisplay:10.37,2013-07-26 13:43:00,
2013-07-26 08:48:00,67.9,65.2,30.01,NE,35,0.0,0.0,91,0.00,CLR,,0.00,WeatherDisplay:10.37,2013-07-26 13:48:00,
2013-07-26 08:53:00,68.5,65.4,30.02,NE,35,0.0,0.0,90,0.00,CLR,,0.00,WeatherDisplay:10.37,2013-07-26 13:53:00,
2013-07-26 08:58:00,68.8,64.8,30.02,NE,35,0.0,0.0,87,0.00,CLR,,0.00,WeatherDisplay:10.37,2013-07-26 13:58:00,
2013-07-26 09:03:00,69.6,65.2,30.02,NE,35,0.0,0.0,86,0.00,CLR,,0.00,WeatherDisplay:10.37,2013-07-26 14:03:00,
2013-07-26 09:08:00,70.3,65.6,30.02,NE,35,0.0,0.0,85,0.00,CLR,,0.00,WeatherDisplay:10.37,2013-07-26 14:08:00,
2013-07-26 09:13:00,70.9,65.5,30.02,NE,35,0.0,0.0,83,0.00,CLR,,0.00,WeatherDisplay:10.37,2013-07-26 14:13:00,
2013-07-26 09:18:00,71.7,65.9,30.01,NE,35,0.0,0.0,82,0.00,CLR,,0.00,WeatherDisplay:10.37,2013-07-26 14:18:00,
2013-07-26 09:24:00,72.4,66.2,30.01,WSW,250,0.0,0.0,81,0.00,CLR,,0.00,WeatherDisplay:10.37,2013-07-26 14:24:00,
2013-07-26 09:29:00,73.0,65.7,30.01,SSW,200,0.0,0.0,78,0.00,CLR,,0.00,WeatherDisplay:10.37,2013-07-26 14:29:00,
2013-07-26 09:34:00,73.5,66.2,30.01,WSW,238,2.3,2.3,78,0.00,CLR,,0.00,WeatherDisplay:10.37,2013-07-26 14:34:00,
2013-07-26 09:39:00,73.8,66.5,30.01,SW,236,1.1,0.0,78,0.00,CLR,,0.00,WeatherDisplay:10.37,2013-07-26 14:39:00,
2013-07-26 09:44:00,74.3,65.9,30.01,SW,235,2.3,2.3,75,0.00,CLR,,0.00,WeatherDisplay:10.37,2013-07-26 14:44:00,
2013-07-26 09:49:00,75.0,65.0,30.01,SW,218,0.0,0.0,71,0.00,CLR,,0.00,WeatherDisplay:10.37,2013-07-26 14:49:00,
2013-07-26 09:54:00,75.8,66.5,30.02,WSW,244,3.5,3.5,73,0.00,CLR,,0.00,WeatherDisplay:10.37,2013-07-26 14:54:00,
2013-07-26 09:59:00,75.9,67.0,30.02,WSW,250,3.5,3.5,74,0.00,CLR,,0.00,WeatherDisplay:10.37,2013-07-26 14:59:00,
2013-07-26 10:04:00,76.2,67.7,30.02,WSW,256,3.5,3.5,75,0.00,CLR,,0.00,WeatherDisplay:10.37,2013-07-26 15:04:00,
2013-07-26 10:09:00,76.7,67.0,30.02,SW,217,2.3,2.3,72,0.00,CLR,,0.00,WeatherDisplay:10.37,2013-07-26 15:09:00,
2013-07-26 10:14:00,77.1,66.1,30.01,West,266,1.1,1.1,69,0.00,CLR,,0.00,WeatherDisplay:10.37,2013-07-26 15:14:00,
2013-07-26 10:19:00,76.9,67.2,30.01,SW,224,3.5,3.5,72,0.00,CLR,,0.00,WeatherDisplay:10.37,2013-07-26 15:19:00,
2013-07-26 10:24:00,76.9,66.0,30.01,WSW,244,1.1,1.1,69,0.00,CLR,,0.00,WeatherDisplay:10.37,2013-07-26 15:24:00,
2013-07-26 10:29:00,77.1,66.6,30.01,WSW,256,3.5,3.5,70,0.00,CLR,,0.00,WeatherDisplay:10.37,2013-07-26 15:29:00,
2013-07-26 10:34:00,77.2,67.5,30.01,SW,226,3.5,3.5,72,0.00,CLR,,0.00,WeatherDisplay:10.37,2013-07-26 15:34:00,
2013-07-26 10:39:00,77.5,66.1,30.01,WSW,248,1.1,1.1,68,0.00,CLR,,0.00,WeatherDisplay:10.37,2013-07-26 15:39:00,
2013-07-26 10:44:00,77.7,65.9,30.01,SW,222,1.1,1.1,67,0.00,CLR,,0.00,WeatherDisplay:10.37,2013-07-26 15:44:00,
2013-07-26 10:49:00,78.2,65.9,30.01,SW,221,3.5,0.0,66,0.00,CLR,,0.00,WeatherDisplay:10.37,2013-07-26 15:49:00,
2013-07-26 10:54:00,78.7,67.7,30.01,West,264,4.0,4.0,69,0.00,CLR,,0.00,WeatherDisplay:10.37,2013-07-26 15:54:00,
2013-07-26 10:59:00,79.1,65.9,30.01,WSW,258,1.1,1.1,64,0.00,CLR,,0.00,WeatherDisplay:10.37,2013-07-26 15:59:00,
2013-07-26 11:04:00,79.3,64.2,30.01,West,273,1.1,1.1,60,0.00,CLR,,0.00,WeatherDisplay:10.37,2013-07-26 16:04:00,
2013-07-26 11:09:00,79.7,66.9,30.01,SSW,207,6.9,6.9,65,0.00,CLR,,0.00,WeatherDisplay:10.37,2013-07-26 16:09:00,
2013-07-26 11:14:00,79.8,65.2,30.01,SW,221,3.5,3.5,61,0.00,CLR,,0.00,WeatherDisplay:10.37,2013-07-26 16:14:00,
2013-07-26 11:19:00,79.9,64.8,30.01,SW,221,1.1,0.0,60,0.00,CLR,,0.00,WeatherDisplay:10.37,2013-07-26 16:19:00,
2013-07-26 11:24:00,79.8,66.1,30.01,WSW,252,3.5,3.5,63,0.00,CLR,,0.00,WeatherDisplay:10.37,2013-07-26 16:24:00,
2013-07-26 11:29:00,80.2,66.9,30.01,SW,227,4.6,4.6,64,0.00,CLR,,0.00,WeatherDisplay:10.37,2013-07-26 16:29:00,
2013-07-26 11:34:00,80.5,66.7,30.01,SW,227,5.8,5.8,63,0.00,CLR,,0.00,WeatherDisplay:10.37,2013-07-26 16:34:00,
2013-07-26 11:39:00,80.5,66.3,30.01,SW,214,1.1,1.1,62,0.00,CLR,,0.00,WeatherDisplay:10.37,2013-07-26 16:39:00,
2013-07-26 11:44:00,80.7,66.9,30.01,SW,230,2.0,2.0,63,0.00,CLR,,0.00,WeatherDisplay:10.37,2013-07-26 16:44:00,
2013-07-26 11:49:00,81.1,66.8,30.01,WSW,238,5.8,5.8,62,0.00,CLR,,0.00,WeatherDisplay:10.37,2013-07-26 16:49:00,
2013-07-26 11:54:00,81.0,66.8,30.01,WNW,296,3.5,3.5,62,0.00,CLR,,0.00,WeatherDisplay:10.37,2013-07-26 16:54:00,
2013-07-26 11:59:00,80.6,65.4,30.01,NW,307,1.0,0.0,60,0.00,CLR,,0.00,WeatherDisplay:10.37,2013-07-26 16:59:00,
2013-07-26 12:04:00,80.5,66.7,30.01,West,280,3.5,3.5,63,0.00,CLR,,0.00,WeatherDisplay:10.37,2013-07-26 17:04:00,
2013-07-26 12:09:00,80.9,68.0,30.00,WSW,256,4.6,4.6,65,0.00,CLR,,0.00,WeatherDisplay:10.37,2013-07-26 17:09:00,
2013-07-26 12:14:00,81.4,68.5,30.00,WSW,257,4.0,4.0,65,0.00,CLR,,0.00,WeatherDisplay:10.37,2013-07-26 17:14:00,
2013-07-26 12:19:00,81.7,67.9,30.00,WSW,238,5.8,5.8,63,0.00,CLR,,0.00,WeatherDisplay:10.37,2013-07-26 17:19:00,
2013-07-26 12:20:00,81.8,68.4,30.00,WSW,249,5.8,5.8,64,0.00,CLR,,0.00,WeatherDisplay:10.37,2013-07-26 17:20:00,
2013-07-26 12:25:00,82.3,68.9,30.00,WSW,248,3.0,7.0,64,0.00,CLR,,0.00,WeatherDisplay:10.37,2013-07-26 17:25:00,
2013-07-26 12:30:00,82.7,64.9,30.00,WSW,247,0.0,1.0,55,0.00,CLR,,0.00,WeatherDisplay:10.37,2013-07-26 17:30:00,
2013-07-26 12:35:00,82.6,66.3,30.00,NNE,16,0.0,0.0,58,0.00,CLR,,0.00,WeatherDisplay:10.37,2013-07-26 17:35:00,
2013-07-26 12:40:00,82.5,67.2,30.00,West,268,1.0,3.0,60,0.00,CLR,,0.00,WeatherDisplay:10.37,2013-07-26 17:40:00,
2013-07-26 12:45:00,82.4,68.1,30.00,WSW,257,3.0,3.0,62,0.00,CLR,,0.00,WeatherDisplay:10.37,2013-07-26 17:45:00,
2013-07-26 12:50:00,82.2,68.8,30.00,West,266,1.0,4.0,64,0.00,CLR,,0.00,WeatherDisplay:10.37,2013-07-26 17:50:00,
2013-07-26 12:55:00,82.1,69.2,30.00,WSW,237,3.0,6.0,65,0.00,CLR,,0.00,WeatherDisplay:10.37,2013-07-26 17:55:00,
2013-07-26 13:00:00,82.2,67.4,30.00,WSW,250,1.1,0.0,61,0.00,CLR,,0.00,WeatherDisplay:10.37,2013-07-26 18:00:00,
2013-07-26 13:05:00,82.1,65.9,30.00,WSW,254,0.0,3.0,58,0.00,CLR,,0.00,WeatherDisplay:10.37,2013-07-26 18:05:00,
2013-07-26 13:10:00,82.3,68.4,30.00,SW,236,4.6,4.6,63,0.00,CLR,,0.00,WeatherDisplay:10.37,2013-07-26 18:10:00,
2013-07-26 13:15:00,82.5,66.7,30.00,West,274,2.3,2.3,59,0.00,CLR,,0.00,WeatherDisplay:10.37,2013-07-26 18:15:00,
2013-07-26 13:20:00,82.9,69.5,30.00,WSW,239,3.0,8.0,64,0.00,CLR,,0.00,WeatherDisplay:10.37,2013-07-26 18:20:00,
2013-07-26 13:25:00,83.0,66.2,30.00,WSW,252,0.0,8.0,57,0.00,CLR,,0.00,WeatherDisplay:10.37,2013-07-26 18:25:00,
2013-07-26 13:30:00,82.8,68.4,30.00,West,276,3.5,3.5,62,0.00,CLR,,0.00,WeatherDisplay:10.37,2013-07-26 18:30:00,
2013-07-26 13:35:00,83.1,67.8,30.00,West,269,1.1,2.3,60,0.00,CLR,,0.00,WeatherDisplay:10.37,2013-07-26 18:35:00,
2013-07-26 13:39:00,83.2,67.9,30.00,SSW,206,5.8,5.8,60,0.00,CLR,,0.00,WeatherDisplay:10.37,2013-07-26 18:39:00,
2013-07-26 13:45:00,83.0,67.7,30.00,West,267,6.9,6.9,60,0.00,CLR,,0.00,WeatherDisplay:10.37,2013-07-26 18:45:00,
2013-07-26 13:50:00,82.9,67.6,30.00,WSW,245,2.3,2.3,60,0.00,CLR,,0.00,WeatherDisplay:10.37,2013-07-26 18:50:00,
2013-07-26 13:55:00,82.7,68.4,30.00,SSW,211,3.5,3.5,62,0.00,CLR,,0.00,WeatherDisplay:10.37,2013-07-26 18:55:00,
2013-07-26 14:00:00,82.5,68.2,30.00,SW,228,4.6,4.6,62,0.00,CLR,,0.00,WeatherDisplay:10.37,2013-07-26 19:00:00,
2013-07-26 14:05:00,82.1,67.8,30.00,WSW,250,1.0,4.0,62,0.00,CLR,,0.00,WeatherDisplay:10.37,2013-07-26 19:05:00,
2013-07-26 14:10:00,81.7,67.9,30.00,West,261,3.5,3.5,63,0.00,CLR,,0.00,WeatherDisplay:10.37,2013-07-26 19:10:00,
2013-07-26 14:15:00,81.5,68.2,30.00,WSW,250,2.0,4.0,64,0.00,CLR,,0.00,WeatherDisplay:10.37,2013-07-26 19:15:00,
2013-07-26 14:20:00,81.4,68.5,30.00,SW,218,0.0,2.0,65,0.00,CLR,,0.00,WeatherDisplay:10.37,2013-07-26 19:20:00,
2013-07-26 14:25:00,81.1,67.8,29.99,SW,216,0.0,0.0,64,0.00,CLR,,0.00,WeatherDisplay:10.37,2013-07-26 19:25:00,
2013-07-26 14:30:00,80.8,68.4,29.99,SW,216,0.0,0.0,66,0.00,CLR,,0.00,WeatherDisplay:10.37,2013-07-26 19:30:00,
2013-07-26 14:35:00,80.5,68.1,29.99,SW,216,0.0,0.0,66,0.00,CLR,,0.00,WeatherDisplay:10.37,2013-07-26 19:35:00,
2013-07-26 14:40:00,80.3,68.8,29.99,SW,216,0.0,0.0,68,0.00,CLR,,0.00,WeatherDisplay:10.37,2013-07-26 19:40:00,
2013-07-26 14:45:00,80.1,68.2,29.99,SW,216,0.0,0.0,67,0.00,CLR,,0.00,WeatherDisplay:10.37,2013-07-26 19:45:00,
2013-07-26 14:50:00,80.0,68.5,29.98,SW,216,0.0,0.0,68,0.00,CLR,,0.00,WeatherDisplay:10.37,2013-07-26 19:50:00,
2013-07-26 14:55:00,79.8,69.1,29.99,SW,216,0.0,0.0,70,0.00,CLR,,0.00,WeatherDisplay:10.37,2013-07-26 19:55:00,
2013-07-26 15:00:00,79.8,70.0,29.99,SW,216,0.0,0.0,72,0.00,CLR,,0.00,WeatherDisplay:10.37,2013-07-26 20:00:00,
2013-07-26 15:05:00,79.6,69.0,29.99,SW,216,0.0,0.0,70,0.00,CLR,,0.00,WeatherDisplay:10.37,2013-07-26 20:05:00,
2013-07-26 15:10:00,79.7,69.9,29.98,SW,216,0.0,0.0,72,0.00,CLR,,0.00,WeatherDisplay:10.37,2013-07-26 20:10:00,
2013-07-26 15:15:00,79.6,69.0,29.98,SW,216,0.0,0.0,70,0.00,CLR,,0.00,WeatherDisplay:10.37,2013-07-26 20:15:00,
2013-07-26 15:20:00,79.6,67.7,29.98,SW,216,0.0,0.0,67,0.00,CLR,,0.00,WeatherDisplay:10.37,2013-07-26 20:20:00,
2013-07-26 15:25:00,79.7,68.2,29.98,SW,216,0.0,0.0,68,0.00,CLR,,0.00,WeatherDisplay:10.37,2013-07-26 20:25:00,
2013-07-26 15:30:00,79.7,68.6,29.98,SW,216,0.0,0.0,69,0.00,CLR,,0.00,WeatherDisplay:10.37,2013-07-26 20:30:00,
2013-07-26 15:35:00,79.6,68.1,29.98,SW,216,0.0,0.0,68,0.00,CLR,,0.00,WeatherDisplay:10.37,2013-07-26 20:35:00,
2013-07-26 15:40:00,79.4,67.9,29.98,SW,216,0.0,0.0,68,0.00,CLR,,0.00,WeatherDisplay:10.37,2013-07-26 20:40:00,
2013-07-26 15:45:00,79.4,68.3,29.98,SW,216,0.0,0.0,69,0.00,CLR,,0.00,WeatherDisplay:10.37,2013-07-26 20:45:00,
2013-07-26 15:50:00,79.3,68.7,29.98,SW,216,0.0,0.0,70,0.00,CLR,,0.00,WeatherDisplay:10.37,2013-07-26 20:50:00,
2013-07-26 15:55:00,79.2,68.1,29.98,SW,216,0.0,0.0,69,0.00,CLR,,0.00,WeatherDisplay:10.37,2013-07-26 20:55:00,
2013-07-26 16:00:00,79.1,68.1,29.98,SW,216,0.0,0.0,69,0.00,CLR,,0.00,WeatherDisplay:10.37,2013-07-26 21:00:00,
2013-07-26 16:05:00,79.1,68.0,29.98,SW,216,0.0,0.0,69,0.00,CLR,,0.00,WeatherDisplay:10.37,2013-07-26 21:05:00,
2013-07-26 16:10:00,79.0,67.5,29.98,SW,216,0.0,0.0,68,0.00,CLR,,0.00,WeatherDisplay:10.37,2013-07-26 21:10:00,
2013-07-26 16:15:00,79.1,68.9,29.98,SW,216,0.0,0.0,71,0.00,CLR,,0.00,WeatherDisplay:10.37,2013-07-26 21:15:00,
2013-07-26 16:20:00,79.1,68.5,29.98,SW,216,0.0,0.0,70,0.00,CLR,,0.00,WeatherDisplay:10.37,2013-07-26 21:20:00,
2013-07-26 16:25:00,79.0,68.0,29.98,SW,216,0.0,0.0,69,0.00,CLR,,0.00,WeatherDisplay:10.37,2013-07-26 21:25:00,
2013-07-26 16:30:00,78.9,68.3,29.98,West,281,0.0,0.0,70,0.00,CLR,,0.00,WeatherDisplay:10.37,2013-07-26 21:30:00,
2013-07-26 16:35:00,78.8,68.2,29.98,West,268,0.0,0.0,70,0.00,CLR,,0.00,WeatherDisplay:10.37,2013-07-26 21:35:00,
2013-07-26 16:40:00,78.9,68.3,29.98,West,281,0.0,0.0,70,0.00,CLR,,0.00,WeatherDisplay:10.37,2013-07-26 21:40:00,
2013-07-26 16:45:00,78.8,69.0,29.98,West,281,0.0,0.0,72,0.00,CLR,,0.00,WeatherDisplay:10.37,2013-07-26 21:45:00,
2013-07-26 16:50:00,78.5,68.8,29.98,WNW,282,0.0,1.0,72,0.00,CLR,,0.00,WeatherDisplay:10.37,2013-07-26 21:50:00,
2013-07-26 16:55:00,78.5,69.9,29.98,NW,306,0.0,0.0,75,0.00,CLR,,0.00,WeatherDisplay:10.37,2013-07-26 21:55:00,
2013-07-26 17:00:00,78.3,69.3,29.98,NW,322,0.0,0.0,74,0.00,CLR,,0.00,WeatherDisplay:10.37,2013-07-26 22:00:00,
2013-07-26 17:05:00,78.3,69.3,29.98,NW,322,0.0,0.0,74,0.00,CLR,,0.00,WeatherDisplay:10.37,2013-07-26 22:05:00,
2013-07-26 17:10:00,78.0,68.6,29.98,NW,322,0.0,0.0,73,0.00,CLR,,0.00,WeatherDisplay:10.37,2013-07-26 22:10:00,
2013-07-26 17:15:00,78.0,68.6,29.98,NW,322,0.0,0.0,73,0.00,CLR,,0.00,WeatherDisplay:10.37,2013-07-26 22:15:00,
2013-07-26 17:20:00,78.0,69.4,29.98,NW,322,0.0,0.0,75,0.00,CLR,,0.00,WeatherDisplay:10.37,2013-07-26 22:20:00,
2013-07-26 17:25:00,78.0,69.4,29.98,NW,322,0.0,0.0,75,0.00,CLR,,0.00,WeatherDisplay:10.37,2013-07-26 22:25:00,
2013-07-26 17:30:00,78.1,69.9,29.98,NW,322,0.0,0.0,76,0.00,CLR,,0.00,WeatherDisplay:10.37,2013-07-26 22:30:00,
2013-07-26 17:35:00,78.1,70.3,29.98,NW,322,0.0,0.0,77,0.00,CLR,,0.00,WeatherDisplay:10.37,2013-07-26 22:35:00,
2013-07-26 17:40:00,78.0,69.8,29.97,NW,322,0.0,0.0,76,0.00,CLR,,0.00,WeatherDisplay:10.37,2013-07-26 22:40:00,
2013-07-26 17:45:00,77.9,69.7,29.97,NW,322,0.0,0.0,76,0.00,CLR,,0.00,WeatherDisplay:10.37,2013-07-26 22:45:00,
2013-07-26 17:49:00,77.6,69.4,29.97,NW,322,0.0,0.0,76,0.00,CLR,,0.00,WeatherDisplay:10.37,2013-07-26 22:49:00,
2013-07-26 17:55:00,77.4,68.9,29.97,NW,322,0.0,0.0,75,0.00,CLR,,0.00,WeatherDisplay:10.37,2013-07-26 22:55:00,
2013-07-26 18:00:00,77.2,68.7,29.97,NW,322,0.0,0.0,75,0.00,CLR,,0.00,WeatherDisplay:10.37,2013-07-26 23:00:00,
2013-07-26 18:05:00,77.0,68.9,29.97,NW,322,0.0,0.0,76,0.00,CLR,,0.00,WeatherDisplay:10.37,2013-07-26 23:05:00,
2013-07-26 18:10:00,76.9,69.1,29.97,NW,322,0.0,0.0,77,0.00,CLR,,0.00,WeatherDisplay:10.37,2013-07-26 23:10:00,
2013-07-26 18:15:00,76.7,68.6,29.97,NW,322,0.0,0.0,76,0.00,CLR,,0.00,WeatherDisplay:10.37,2013-07-26 23:15:00,
2013-07-26 18:20:00,76.5,68.8,29.97,NW,322,0.0,0.0,77,0.00,CLR,,0.00,WeatherDisplay:10.37,2013-07-26 23:20:00,
2013-07-26 18:25:00,76.4,69.0,29.97,NW,322,0.0,0.0,78,0.00,CLR,,0.00,WeatherDisplay:10.37,2013-07-26 23:25:00,
2013-07-26 18:30:00,76.4,69.4,29.97,NW,322,0.0,0.0,79,0.00,CLR,,0.00,WeatherDisplay:10.37,2013-07-26 23:30:00,
2013-07-26 18:35:00,76.2,68.8,29.97,NW,322,0.0,0.0,78,0.00,CLR,,0.00,WeatherDisplay:10.37,2013-07-26 23:35:00,
2013-07-26 18:40:00,76.1,69.5,29.97,NW,322,0.0,0.0,80,0.00,CLR,,0.00,WeatherDisplay:10.37,2013-07-26 23:40:00,
2013-07-26 18:45:00,75.9,69.6,29.97,NW,322,0.0,1.0,81,0.00,CLR,,0.00,WeatherDisplay:10.37,2013-07-26 23:45:00,
2013-07-26 18:50:00,75.7,69.1,29.96,NW,322,0.0,0.0,80,0.00,CLR,,0.00,WeatherDisplay:10.37,2013-07-26 23:50:00,
2013-07-26 18:55:00,75.4,68.4,29.96,NW,322,0.0,0.0,79,0.00,CLR,,0.00,WeatherDisplay:10.37,2013-07-26 23:55:00,
2013-07-26 19:00:00,75.2,69.0,29.96,NW,322,0.0,0.0,81,0.00,CLR,,0.00,WeatherDisplay:10.37,2013-07-27 00:00:00,
2013-07-26 19:05:00,75.0,69.1,29.96,NW,322,0.0,0.0,82,0.00,CLR,,0.00,WeatherDisplay:10.37,2013-07-27 00:05:00,
2013-07-26 19:10:00,74.8,68.9,29.96,NW,322,0.0,0.0,82,0.00,CLR,,0.00,WeatherDisplay:10.37,2013-07-27 00:10:00,
2013-07-26 19:15:00,74.5,69.0,29.96,NW,322,0.0,0.0,83,0.00,CLR,,0.00,WeatherDisplay:10.37,2013-07-27 00:15:00,
2013-07-26 19:20:00,74.5,69.7,29.95,NW,322,0.0,0.0,85,0.00,CLR,,0.00,WeatherDisplay:10.37,2013-07-27 00:20:00,
2013-07-26 19:25:00,74.2,69.4,29.95,NW,322,0.0,0.0,85,0.00,CLR,,0.00,WeatherDisplay:10.37,2013-07-27 00:25:00,
2013-07-26 19:30:00,74.0,69.2,29.95,NW,322,0.0,0.0,85,0.00,CLR,,0.00,WeatherDisplay:10.37,2013-07-27 00:30:00,
2013-07-26 19:35:00,73.8,69.0,29.95,NW,322,0.0,0.0,85,0.00,CLR,,0.00,WeatherDisplay:10.37,2013-07-27 00:35:00,
2013-07-26 19:40:00,73.7,69.2,29.95,NW,322,0.0,0.0,86,0.00,CLR,,0.00,WeatherDisplay:10.37,2013-07-27 00:40:00,
2013-07-26 19:45:00,73.3,68.9,29.95,NW,322,0.0,0.0,86,0.00,CLR,,0.00,WeatherDisplay:10.37,2013-07-27 00:45:00,
2013-07-26 19:50:00,73.1,69.0,29.95,NW,322,0.0,0.0,87,0.00,CLR,,0.00,WeatherDisplay:10.37,2013-07-27 00:50:00,
2013-07-26 19:55:00,72.8,68.7,29.95,NW,322,0.0,0.0,87,0.00,CLR,,0.00,WeatherDisplay:10.37,2013-07-27 00:55:00,
2013-07-26 20:00:00,72.5,68.7,29.94,NW,322,0.0,0.0,88,0.00,CLR,,0.00,WeatherDisplay:10.37,2013-07-27 01:00:00,
2013-07-26 20:05:00,72.3,68.9,29.94,NW,322,0.0,0.0,89,0.00,CLR,,0.00,WeatherDisplay:10.37,2013-07-27 01:05:00,
2013-07-26 20:10:00,72.1,69.0,29.94,NW,322,0.0,0.0,90,0.00,CLR,,0.00,WeatherDisplay:10.37,2013-07-27 01:10:00,
2013-07-26 20:15:00,72.0,68.9,29.94,NW,322,0.0,0.0,90,0.00,CLR,,0.00,WeatherDisplay:10.37,2013-07-27 01:15:00,
2013-07-26 20:20:00,71.9,69.1,29.94,NW,322,0.0,0.0,91,0.00,CLR,,0.00,WeatherDisplay:10.37,2013-07-27 01:20:00,
2013-07-26 20:25:00,71.8,69.0,29.93,NW,322,0.0,0.0,91,0.00,CLR,,0.00,WeatherDisplay:10.37,2013-07-27 01:25:00,
2013-07-26 20:30:00,71.7,68.9,29.93,NW,322,0.0,0.0,91,0.00,CLR,,0.00,WeatherDisplay:10.37,2013-07-27 01:30:00,
2013-07-26 20:35:00,71.7,68.9,29.93,NW,322,0.0,0.0,91,0.00,CLR,,0.00,WeatherDisplay:10.37,2013-07-27 01:35:00,
2013-07-26 20:40:00,71.5,69.1,29.93,NW,322,0.0,0.0,92,0.00,CLR,,0.00,WeatherDisplay:10.37,2013-07-27 01:40:00,
2013-07-26 20:45:00,71.5,69.1,29.93,NW,322,0.0,0.0,92,0.00,CLR,,0.00,WeatherDisplay:10.37,2013-07-27 01:45:00,
2013-07-26 20:50:00,71.4,69.0,29.93,NW,322,0.0,0.0,92,0.01,RA,,0.01,WeatherDisplay:10.37,2013-07-27 01:50:00,
2013-07-26 20:55:00,71.4,69.0,29.93,NW,322,0.0,0.0,92,0.01,RA,,0.01,WeatherDisplay:10.37,2013-07-27 01:55:00,
2013-07-26 21:00:00,71.2,68.8,29.93,NW,322,0.0,0.0,92,0.01,,,0.01,WeatherDisplay:10.37,2013-07-27 02:00:00,
2013-07-26 21:05:00,71.1,68.7,29.93,NW,322,0.0,0.0,92,0.01,CLR,,0.01,WeatherDisplay:10.37,2013-07-27 02:05:00,
2013-07-26 21:10:00,71.1,69.0,29.92,NW,322,0.0,0.0,93,0.01,CLR,,0.01,WeatherDisplay:10.37,2013-07-27 02:10:00,
2013-07-26 21:15:00,71.1,69.0,29.92,NW,322,0.0,0.0,93,0.01,CLR,,0.01,WeatherDisplay:10.37,2013-07-27 02:15:00,
2013-07-26 21:20:00,71.0,68.6,29.93,NW,322,0.0,0.0,92,0.01,CLR,,0.01,WeatherDisplay:10.37,2013-07-27 02:20:00,
2013-07-26 21:25:00,70.9,68.8,29.93,NW,322,0.0,0.0,93,0.01,CLR,,0.01,WeatherDisplay:10.37,2013-07-27 02:25:00,
2013-07-26 21:30:00,70.8,68.7,29.93,NW,322,0.0,0.0,93,0.01,CLR,,0.01,WeatherDisplay:10.37,2013-07-27 02:30:00,
2013-07-26 21:35:00,70.7,68.6,29.93,NW,322,0.0,0.0,93,0.01,CLR,,0.01,WeatherDisplay:10.37,2013-07-27 02:35:00,
2013-07-26 21:40:00,70.5,68.4,29.93,NW,322,0.0,0.0,93,0.01,CLR,,0.01,WeatherDisplay:10.37,2013-07-27 02:40:00,
2013-07-26 21:45:00,70.4,68.3,29.92,NW,322,0.0,0.0,93,0.01,CLR,,0.01,WeatherDisplay:10.37,2013-07-27 02:45:00,
2013-07-26 21:50:00,70.3,68.2,29.92,NW,322,0.0,0.0,93,0.00,CLR,,0.01,WeatherDisplay:10.37,2013-07-27 02:50:00,
2013-07-26 21:55:00,70.2,68.1,29.92,NW,322,0.0,0.0,93,0.00,CLR,,0.01,WeatherDisplay:10.37,2013-07-27 02:55:00,
2013-07-26 22:00:00,70.2,68.1,29.92,NW,322,0.0,0.0,93,0.00,CLR,,0.01,WeatherDisplay:10.37,2013-07-27 03:00:00,
2013-07-26 22:05:00,70.2,68.4,29.92,NW,322,0.0,0.0,94,0.00,CLR,,0.01,WeatherDisplay:10.37,2013-07-27 03:05:00,
2013-07-26 22:10:00,70.2,68.4,29.92,NW,322,0.0,0.0,94,0.00,CLR,,0.01,WeatherDisplay:10.37,2013-07-27 03:10:00,
2013-07-26 22:15:00,70.2,68.1,29.92,NW,322,0.0,0.0,93,0.00,CLR,,0.01,WeatherDisplay:10.37,2013-07-27 03:15:00,
2013-07-26 22:20:00,70.1,68.3,29.92,NW,322,0.0,0.0,94,0.00,CLR,,0.01,WeatherDisplay:10.37,2013-07-27 03:20:00,
2013-07-26 22:25:00,70.0,68.2,29.92,NW,322,0.0,0.0,94,0.00,CLR,,0.01,WeatherDisplay:10.37,2013-07-27 03:25:00,
2013-07-26 22:30:00,70.0,68.2,29.92,NW,322,0.0,0.0,94,0.00,CLR,,0.01,WeatherDisplay:10.37,2013-07-27 03:30:00,
2013-07-26 22:35:00,69.9,68.1,29.92,NW,322,0.0,0.0,94,0.00,CLR,,0.01,WeatherDisplay:10.37,2013-07-27 03:35:00,
2013-07-26 22:40:00,69.7,67.9,29.92,NW,322,0.0,0.0,94,0.00,CLR,,0.01,WeatherDisplay:10.37,2013-07-27 03:40:00,
2013-07-26 22:45:00,69.6,67.8,29.92,NW,322,0.0,0.0,94,0.00,CLR,,0.01,WeatherDisplay:10.37,2013-07-27 03:45:00,
2013-07-26 22:50:00,69.6,67.8,29.91,NW,322,0.0,0.0,94,0.00,CLR,,0.01,WeatherDisplay:10.37,2013-07-27 03:50:00,
2013-07-26 22:55:00,69.7,67.9,29.91,NW,322,0.0,0.0,94,0.00,CLR,,0.01,WeatherDisplay:10.37,2013-07-27 03:55:00,
2013-07-26 23:00:00,69.7,67.9,29.91,NW,322,0.0,0.0,94,0.00,CLR,,0.01,WeatherDisplay:10.37,2013-07-27 04:00:00,
2013-07-26 23:01:00,69.7,67.9,29.91,NW,322,0.0,0.0,94,0.00,CLR,,0.01,WeatherDisplay:10.37,2013-07-27 04:01:00,
2013-07-26 23:06:00,69.6,67.8,29.91,NW,322,0.0,0.0,94,0.00,CLR,,0.01,WeatherDisplay:10.37,2013-07-27 04:06:00,
2013-07-26 23:12:00,69.6,67.8,29.91,NW,322,0.0,0.0,94,0.00,CLR,,0.01,WeatherDisplay:10.37,2013-07-27 04:12:00,
2013-07-26 23:17:00,69.5,67.7,29.91,NW,322,0.0,0.0,94,0.00,CLR,,0.01,WeatherDisplay:10.37,2013-07-27 04:17:00,
2013-07-26 23:22:00,69.4,67.6,29.91,NW,322,0.0,0.0,94,0.00,CLR,,0.01,WeatherDisplay:10.37,2013-07-27 04:22:00,
2013-07-26 23:27:00,69.3,67.5,29.91,NW,322,0.0,0.0,94,0.00,CLR,,0.01,WeatherDisplay:10.37,2013-07-27 04:27:00,
2013-07-26 23:32:00,69.3,67.5,29.91,NW,322,0.0,0.0,94,0.00,CLR,,0.01,WeatherDisplay:10.37,2013-07-27 04:32:00,
2013-07-26 23:37:00,69.2,67.4,29.92,NW,322,0.0,0.0,94,0.00,CLR,,0.01,WeatherDisplay:10.37,2013-07-27 04:37:00,
2013-07-26 23:42:00,69.2,67.4,29.92,NW,322,0.0,0.0,94,0.00,CLR,,0.01,WeatherDisplay:10.37,2013-07-27 04:42:00,
2013-07-26 23:47:00,69.2,67.4,29.92,NW,322,0.0,0.0,94,0.00,CLR,,0.01,WeatherDisplay:10.37,2013-07-27 04:47:00,
2013-07-26 23:52:00,69.1,67.3,29.92,NW,322,0.0,0.0,94,0.00,CLR,,0.01,WeatherDisplay:10.37,2013-07-27 04:52:00,
2013-07-26 23:57:00,69.1,67.3,29.92,NW,322,0.0,0.0,94,0.00,CLR,,0.01,WeatherDisplay:10.37,2013-07-27 04:57:00,